createdAt,value
2018-03-08T00:00:51.223Z,992.89
2018-03-08T00:01:51.248Z,992.84
2018-03-08T00:02:51.257Z,992.87
2018-03-08T00:03:51.265Z,992.84
2018-03-08T00:04:51.283Z,992.83
2018-03-08T00:05:51.304Z,992.81
2018-03-08T00:06:51.305Z,992.81
2018-03-08T00:07:51.316Z,992.84
2018-03-08T00:08:51.339Z,992.83
2018-03-08T00:09:51.346Z,992.85
2018-03-08T00:10:51.352Z,992.87
2018-03-08T00:11:51.366Z,992.86
2018-03-08T00:12:51.380Z,992.81
2018-03-08T00:13:51.388Z,992.79
2018-03-08T00:14:51.402Z,992.81
2018-03-08T00:15:51.407Z,992.82
2018-03-08T00:16:51.434Z,992.80
2018-03-08T00:17:51.446Z,992.80
2018-03-08T00:18:51.447Z,992.83
2018-03-08T00:19:51.474Z,992.81
2018-03-08T00:20:51.479Z,992.80
2018-03-08T00:21:51.487Z,992.83
2018-03-08T00:22:51.508Z,992.76
2018-03-08T00:23:51.503Z,992.78
2018-03-08T00:24:51.528Z,992.81
2018-03-08T00:25:51.536Z,992.85
2018-03-08T00:26:51.542Z,992.84
2018-03-08T00:27:51.569Z,992.88
2018-03-08T00:28:51.580Z,992.86
2018-03-08T00:29:51.584Z,992.84
2018-03-08T00:30:51.604Z,992.87
2018-03-08T00:31:51.611Z,992.87
2018-03-08T00:32:51.626Z,992.81
2018-03-08T00:33:51.633Z,992.79
2018-03-08T00:34:51.637Z,992.81
2018-03-08T00:35:51.673Z,992.82
2018-03-08T00:36:51.671Z,992.82
2018-03-08T00:37:51.679Z,992.84
2018-03-08T00:38:51.694Z,992.83
2018-03-08T00:39:51.711Z,992.87
2018-03-08T00:40:51.721Z,992.84
2018-03-08T00:41:51.730Z,992.87
2018-03-08T00:42:51.737Z,992.83
2018-03-08T00:43:51.765Z,992.84
2018-03-08T00:44:51.770Z,992.86
2018-03-08T00:45:51.774Z,992.91
2018-03-08T00:46:51.787Z,992.88
2018-03-08T00:47:51.806Z,992.85
2018-03-08T00:48:51.818Z,992.85
2018-03-08T00:49:51.828Z,992.82
2018-03-08T00:50:51.844Z,992.85
2018-03-08T00:51:51.850Z,992.83
2018-03-08T00:52:51.864Z,992.87
2018-03-08T00:53:51.875Z,992.88
2018-03-08T00:54:51.891Z,992.91
2018-03-08T00:55:51.906Z,992.88
2018-03-08T00:56:51.918Z,992.88
2018-03-08T00:57:51.921Z,992.85
2018-03-08T00:58:51.944Z,992.87
2018-03-08T00:59:51.947Z,992.87
2018-03-08T01:00:51.960Z,992.82
2018-03-08T01:01:51.968Z,992.84
2018-03-08T01:02:51.989Z,992.84
2018-03-08T01:03:52.002Z,992.88
2018-03-08T01:04:52.010Z,992.89
2018-03-08T01:05:52.015Z,992.85
2018-03-08T01:06:52.045Z,992.90
2018-03-08T01:07:52.050Z,992.88
2018-03-08T01:08:52.059Z,992.90
2018-03-08T01:09:52.069Z,992.89
2018-03-08T01:10:52.088Z,992.87
2018-03-08T01:11:52.097Z,992.88
2018-03-08T01:12:52.099Z,992.87
2018-03-08T01:13:52.115Z,992.90
2018-03-08T01:14:52.134Z,992.88
2018-03-08T01:15:52.142Z,992.90
2018-03-08T01:16:52.163Z,992.91
2018-03-08T01:17:52.166Z,992.89
2018-03-08T01:18:52.180Z,992.88
2018-03-08T01:19:52.203Z,992.85
2018-03-08T01:20:52.196Z,992.85
2018-03-08T01:21:52.224Z,992.81
2018-03-08T01:22:52.230Z,992.80
2018-03-08T01:23:52.241Z,992.81
2018-03-08T01:24:52.256Z,992.82
2018-03-08T01:25:52.258Z,992.85
2018-03-08T01:26:52.283Z,992.82
2018-03-08T01:27:52.290Z,992.83
2018-03-08T01:28:52.295Z,992.84
2018-03-08T01:29:52.320Z,992.87
2018-03-08T01:30:52.329Z,992.85
2018-03-08T01:31:52.333Z,992.85
2018-03-08T01:32:52.387Z,992.85
2018-03-08T01:33:52.354Z,992.82
2018-03-08T01:34:52.371Z,992.84
2018-03-08T01:35:52.387Z,992.81
2018-03-08T01:36:52.392Z,992.84
2018-03-08T01:37:52.413Z,992.79
2018-03-08T01:38:52.424Z,992.81
2018-03-08T01:39:52.442Z,992.77
2018-03-08T01:40:52.444Z,992.79
2018-03-08T01:41:52.454Z,992.78
2018-03-08T01:42:52.470Z,992.77
2018-03-08T01:43:52.480Z,992.74
2018-03-08T01:44:52.497Z,992.70
2018-03-08T01:45:52.506Z,992.72
2018-03-08T01:46:52.521Z,992.72
2018-03-08T01:47:52.530Z,992.73
2018-03-08T01:48:52.539Z,992.70
2018-03-08T01:49:52.550Z,992.71
2018-03-08T01:50:52.570Z,992.71
2018-03-08T01:51:52.580Z,992.73
2018-03-08T01:52:52.582Z,992.75
2018-03-08T01:53:52.602Z,992.73
2018-03-08T01:54:52.616Z,992.77
2018-03-08T01:55:52.621Z,992.77
2018-03-08T01:56:52.654Z,992.79
2018-03-08T01:57:52.645Z,992.79
2018-03-08T01:58:52.663Z,992.83
2018-03-08T01:59:52.671Z,992.81
2018-03-08T02:00:52.678Z,992.83
2018-03-08T02:01:52.698Z,992.84
2018-03-08T02:02:52.716Z,992.82
2018-03-08T02:03:52.717Z,992.82
2018-03-08T02:04:52.732Z,992.84
2018-03-08T02:05:52.744Z,992.83
2018-03-08T02:06:52.765Z,992.87
2018-03-08T02:07:52.769Z,992.84
2018-03-08T02:08:52.775Z,992.85
2018-03-08T02:09:52.795Z,992.85
2018-03-08T02:10:52.819Z,992.86
2018-03-08T02:11:52.811Z,992.88
2018-03-08T02:12:52.825Z,992.87
2018-03-08T02:13:52.836Z,992.85
2018-03-08T02:14:52.851Z,992.88
2018-03-08T02:15:52.867Z,992.89
2018-03-08T02:16:52.872Z,992.85
2018-03-08T02:17:52.887Z,992.84
2018-03-08T02:18:52.909Z,992.84
2018-03-08T02:19:52.909Z,992.85
2018-03-08T02:20:52.922Z,992.85
2018-03-08T02:21:52.930Z,992.90
2018-03-08T02:22:52.951Z,992.87
2018-03-08T02:23:52.963Z,992.90
2018-03-08T02:24:52.969Z,992.89
2018-03-08T02:25:52.977Z,992.85
2018-03-08T02:26:53.003Z,992.85
2018-03-08T02:27:53.008Z,992.87
2018-03-08T02:28:53.019Z,992.83
2018-03-08T02:29:53.029Z,992.84
2018-03-08T02:30:53.049Z,992.87
2018-03-08T02:31:53.057Z,992.87
2018-03-08T02:32:53.064Z,992.88
2018-03-08T02:33:53.070Z,992.89
2018-03-08T02:34:53.097Z,992.88
2018-03-08T02:35:53.102Z,992.90
2018-03-08T02:36:53.117Z,992.89
2018-03-08T02:37:53.124Z,992.85
2018-03-08T02:38:53.133Z,992.90
2018-03-08T02:39:53.165Z,992.90
2018-03-08T02:40:53.157Z,992.93
2018-03-08T02:41:53.168Z,992.95
2018-03-08T02:42:53.197Z,992.96
2018-03-08T02:43:53.198Z,992.97
2018-03-08T02:44:53.215Z,993.00
2018-03-08T02:45:53.227Z,993.03
2018-03-08T02:46:53.225Z,993.03
2018-03-08T02:47:53.252Z,993.03
2018-03-08T02:48:53.256Z,993.01
2018-03-08T02:49:53.264Z,993.04
2018-03-08T02:50:53.283Z,993.04
2018-03-08T02:51:53.296Z,993.04
2018-03-08T02:52:53.307Z,993.06
2018-03-08T02:53:53.316Z,993.11
2018-03-08T02:54:53.324Z,993.11
2018-03-08T02:55:53.336Z,993.13
2018-03-08T02:56:53.355Z,993.12
2018-03-08T02:57:53.364Z,993.17
2018-03-08T02:58:53.375Z,993.08
2018-03-08T02:59:53.385Z,993.16
2018-03-08T03:00:53.401Z,993.18
2018-03-08T03:01:53.410Z,993.21
2018-03-08T03:02:53.422Z,993.15
2018-03-08T03:03:53.426Z,993.16
2018-03-08T03:04:53.460Z,993.16
2018-03-08T03:05:53.465Z,993.18
2018-03-08T03:06:53.467Z,993.17
2018-03-08T03:07:53.482Z,993.21
2018-03-08T03:08:53.495Z,993.18
2018-03-08T03:09:53.530Z,993.18
2018-03-08T03:10:53.518Z,993.18
2018-03-08T03:11:53.521Z,993.20
2018-03-08T03:12:53.545Z,993.22
2018-03-08T03:13:53.563Z,993.23
2018-03-08T03:14:53.561Z,993.19
2018-03-08T03:15:53.579Z,993.17
2018-03-08T03:16:53.590Z,993.20
2018-03-08T03:17:53.605Z,993.18
2018-03-08T03:18:53.619Z,993.17
2018-03-08T03:19:53.619Z,993.12
2018-03-08T03:20:53.648Z,993.14
2018-03-08T03:21:53.656Z,993.12
2018-03-08T03:22:53.662Z,993.12
2018-03-08T03:23:53.671Z,993.15
2018-03-08T03:24:53.678Z,993.12
2018-03-08T03:25:53.699Z,993.16
2018-03-08T03:26:53.710Z,993.13
2018-03-08T03:27:53.716Z,993.15
2018-03-08T03:28:53.740Z,993.20
2018-03-08T03:29:53.752Z,993.18
2018-03-08T03:30:53.755Z,993.14
2018-03-08T03:31:53.768Z,993.13
2018-03-08T03:32:53.776Z,993.18
2018-03-08T03:33:53.796Z,993.16
2018-03-08T03:34:53.808Z,993.15
2018-03-08T03:35:53.814Z,993.14
2018-03-08T03:36:53.852Z,993.16
2018-03-08T03:37:53.847Z,993.16
2018-03-08T03:38:53.848Z,993.16
2018-03-08T03:39:53.865Z,993.16
2018-03-08T03:40:53.871Z,993.17
2018-03-08T03:41:53.902Z,993.15
2018-03-08T03:42:53.905Z,993.19
2018-03-08T03:43:53.905Z,993.18
2018-03-08T03:44:53.926Z,993.19
2018-03-08T03:45:53.944Z,993.19
2018-03-08T03:46:53.946Z,993.22
2018-03-08T03:47:53.958Z,993.21
2018-03-08T03:48:53.969Z,993.24
2018-03-08T03:49:53.991Z,993.19
2018-03-08T03:50:53.997Z,993.20
2018-03-08T03:51:54.007Z,993.19
2018-03-08T03:52:54.018Z,993.21
2018-03-08T03:53:54.038Z,993.22
2018-03-08T03:54:54.042Z,993.22
2018-03-08T03:55:54.054Z,993.22
2018-03-08T03:56:54.058Z,993.24
2018-03-08T03:57:54.081Z,993.22
2018-03-08T03:58:54.099Z,993.22
2018-03-08T03:59:54.104Z,993.24
2018-03-08T04:00:54.115Z,993.26
2018-03-08T04:01:54.123Z,993.29
2018-03-08T04:02:54.139Z,993.32
2018-03-08T04:03:54.150Z,993.36
2018-03-08T04:04:54.153Z,993.44
2018-03-08T04:05:54.186Z,993.37
2018-03-08T04:06:54.195Z,993.38
2018-03-08T04:07:54.200Z,993.36
2018-03-08T04:08:54.215Z,993.37
2018-03-08T04:09:54.220Z,993.35
2018-03-08T04:10:54.236Z,993.36
2018-03-08T04:11:54.247Z,993.39
2018-03-08T04:12:54.257Z,993.37
2018-03-08T04:13:54.276Z,993.36
2018-03-08T04:14:54.285Z,993.37
2018-03-08T04:15:54.296Z,993.38
2018-03-08T04:16:54.309Z,993.39
2018-03-08T04:17:54.313Z,993.38
2018-03-08T04:18:54.330Z,993.44
2018-03-08T04:19:54.344Z,993.44
2018-03-08T04:20:54.361Z,993.39
2018-03-08T04:21:54.370Z,993.42
2018-03-08T04:22:54.383Z,993.46
2018-03-08T04:23:54.386Z,993.41
2018-03-08T04:24:54.401Z,993.43
2018-03-08T04:25:54.410Z,993.41
2018-03-08T04:26:54.425Z,993.48
2018-03-08T04:27:54.440Z,993.45
2018-03-08T04:28:54.445Z,993.45
2018-03-08T04:29:54.454Z,993.44
2018-03-08T04:30:54.468Z,993.37
2018-03-08T04:31:54.495Z,993.38
2018-03-08T04:32:54.501Z,993.39
2018-03-08T04:33:54.504Z,993.39
2018-03-08T04:34:54.510Z,993.45
2018-03-08T04:35:54.534Z,993.42
2018-03-08T04:36:54.542Z,993.48
2018-03-08T04:37:54.549Z,993.51
2018-03-08T04:38:54.562Z,993.46
2018-03-08T04:39:54.580Z,993.45
2018-03-08T04:40:54.597Z,993.44
2018-03-08T04:41:54.603Z,993.44
2018-03-08T04:42:54.608Z,993.44
2018-03-08T04:43:54.632Z,993.43
2018-03-08T04:44:54.637Z,993.44
2018-03-08T04:45:54.644Z,993.44
2018-03-08T04:46:54.657Z,993.46
2018-03-08T04:47:54.678Z,993.46
2018-03-08T04:48:54.710Z,993.48
2018-03-08T04:49:54.702Z,993.44
2018-03-08T04:50:54.708Z,993.46
2018-03-08T04:51:54.729Z,993.47
2018-03-08T04:52:54.734Z,993.49
2018-03-08T04:53:54.743Z,993.48
2018-03-08T04:54:54.756Z,993.53
2018-03-08T04:55:54.776Z,993.50
2018-03-08T04:56:54.783Z,993.50
2018-03-08T04:57:54.792Z,993.50
2018-03-08T04:58:54.797Z,993.50
2018-03-08T04:59:54.825Z,993.53
2018-03-08T05:00:54.833Z,993.53
2018-03-08T05:01:54.841Z,993.53
2018-03-08T05:02:54.852Z,993.62
2018-03-08T05:03:54.871Z,993.59
2018-03-08T05:04:54.880Z,993.63
2018-03-08T05:05:54.895Z,993.60
2018-03-08T05:06:54.894Z,993.65
2018-03-08T05:07:54.915Z,993.64
2018-03-08T05:08:54.929Z,993.64
2018-03-08T05:09:54.937Z,993.68
2018-03-08T05:10:54.941Z,993.68
2018-03-08T05:11:54.960Z,993.67
2018-03-08T05:12:54.975Z,993.67
2018-03-08T05:13:54.987Z,993.67
2018-03-08T05:14:54.997Z,993.72
2018-03-08T05:15:54.999Z,993.72
2018-03-08T05:16:55.029Z,993.74
2018-03-08T05:17:55.037Z,993.73
2018-03-08T05:18:55.038Z,993.73
2018-03-08T05:19:55.054Z,993.77
2018-03-08T05:20:55.060Z,993.78
2018-03-08T05:21:55.078Z,993.77
2018-03-08T05:22:55.093Z,993.73
2018-03-08T05:23:55.100Z,993.70
2018-03-08T05:24:55.123Z,993.73
2018-03-08T05:25:55.132Z,993.75
2018-03-08T05:26:55.158Z,993.74
2018-03-08T05:27:55.151Z,993.76
2018-03-08T05:28:55.151Z,993.71
2018-03-08T05:29:55.164Z,993.69
2018-03-08T05:30:55.208Z,993.72
2018-03-08T05:31:55.197Z,993.65
2018-03-08T05:32:55.206Z,993.67
2018-03-08T05:33:55.219Z,993.73
2018-03-08T05:34:55.220Z,993.70
2018-03-08T05:35:55.243Z,993.67
2018-03-08T05:36:55.252Z,993.78
2018-03-08T05:37:55.256Z,993.80
2018-03-08T05:38:55.275Z,993.76
2018-03-08T05:39:55.300Z,993.77
2018-03-08T05:40:55.300Z,993.76
2018-03-08T05:41:55.308Z,993.80
2018-03-08T05:42:55.314Z,993.76
2018-03-08T05:43:55.340Z,993.77
2018-03-08T05:44:55.347Z,993.76
2018-03-08T05:45:55.356Z,993.79
2018-03-08T05:46:55.368Z,993.74
2018-03-08T05:47:55.370Z,993.75
2018-03-08T05:48:55.398Z,993.76
2018-03-08T05:49:55.411Z,993.79
2018-03-08T05:50:55.410Z,993.81
2018-03-08T05:51:55.426Z,993.79
2018-03-08T05:52:55.433Z,993.80
2018-03-08T05:53:55.441Z,993.85
2018-03-08T05:54:55.464Z,993.87
2018-03-08T05:55:55.469Z,993.89
2018-03-08T05:56:55.494Z,993.92
2018-03-08T05:57:55.491Z,993.94
2018-03-08T05:58:55.497Z,993.97
2018-03-08T05:59:55.526Z,993.97
2018-03-08T06:00:55.524Z,993.99
2018-03-08T06:01:55.540Z,993.99
2018-03-08T06:02:55.546Z,993.99
2018-03-08T06:03:55.565Z,993.98
2018-03-08T06:04:55.578Z,994.00
2018-03-08T06:05:55.587Z,993.99
2018-03-08T06:06:55.591Z,994.00
2018-03-08T06:07:55.621Z,994.00
2018-03-08T06:08:55.620Z,994.00
2018-03-08T06:09:55.629Z,994.01
2018-03-08T06:10:55.643Z,994.00
2018-03-08T06:11:55.653Z,994.06
2018-03-08T06:12:55.676Z,994.02
2018-03-08T06:13:55.686Z,993.99
2018-03-08T06:14:55.688Z,994.10
2018-03-08T06:15:55.704Z,994.04
2018-03-08T06:16:55.716Z,994.13
2018-03-08T06:17:55.724Z,994.11
2018-03-08T06:18:55.739Z,994.13
2018-03-08T06:19:55.746Z,994.16
2018-03-08T06:20:55.770Z,994.17
2018-03-08T06:21:55.780Z,994.21
2018-03-08T06:22:55.786Z,994.18
2018-03-08T06:23:55.796Z,994.21
2018-03-08T06:24:55.812Z,994.24
2018-03-08T06:25:55.826Z,994.22
2018-03-08T06:26:55.834Z,994.28
2018-03-08T06:27:55.838Z,994.29
2018-03-08T06:28:55.863Z,994.32
2018-03-08T06:29:55.872Z,994.33
2018-03-08T06:30:55.878Z,994.33
2018-03-08T06:31:55.896Z,994.35
2018-03-08T06:32:55.903Z,994.40
2018-03-08T06:33:55.918Z,994.38
2018-03-08T06:34:55.936Z,994.42
2018-03-08T06:35:55.942Z,994.43
2018-03-08T06:36:55.967Z,994.43
2018-03-08T06:37:55.974Z,994.45
2018-03-08T06:38:55.994Z,994.44
2018-03-08T06:39:55.988Z,994.51
2018-03-08T06:40:55.998Z,994.54
2018-03-08T06:41:56.015Z,994.55
2018-03-08T06:42:56.029Z,994.56
2018-03-08T06:43:56.032Z,994.61
2018-03-08T06:44:56.062Z,994.59
2018-03-08T06:45:56.072Z,994.61
2018-03-08T06:46:56.089Z,994.67
2018-03-08T06:47:56.088Z,994.61
2018-03-08T06:48:56.107Z,994.65
2018-03-08T06:49:56.122Z,994.66
2018-03-08T06:50:56.127Z,994.66
2018-03-08T06:51:56.144Z,994.68
2018-03-08T06:52:56.156Z,994.68
2018-03-08T06:53:56.164Z,994.75
2018-03-08T06:54:56.170Z,994.72
2018-03-08T06:55:56.191Z,994.69
2018-03-08T06:56:56.196Z,994.73
2018-03-08T06:57:56.209Z,994.73
2018-03-08T06:58:56.224Z,994.76
2018-03-08T06:59:56.235Z,994.78
2018-03-08T07:00:56.248Z,994.80
2018-03-08T07:01:56.258Z,994.81
2018-03-08T07:02:56.274Z,994.75
2018-03-08T07:03:56.289Z,994.81
2018-03-08T07:04:56.295Z,994.75
2018-03-08T07:05:56.304Z,994.78
2018-03-08T07:06:56.330Z,994.82
2018-03-08T07:07:56.336Z,994.78
2018-03-08T07:08:56.344Z,994.82
2018-03-08T07:09:56.369Z,994.86
2018-03-08T07:10:56.371Z,994.86
2018-03-08T07:11:56.386Z,994.84
2018-03-08T07:12:56.404Z,994.87
2018-03-08T07:13:56.411Z,994.88
2018-03-08T07:14:56.425Z,994.87
2018-03-08T07:15:56.451Z,994.87
2018-03-08T07:16:56.456Z,994.86
2018-03-08T07:17:56.463Z,994.91
2018-03-08T07:18:56.471Z,994.92
2018-03-08T07:19:56.489Z,994.93
2018-03-08T07:20:56.499Z,994.94
2018-03-08T07:21:56.506Z,994.97
2018-03-08T07:22:56.528Z,994.97
2018-03-08T07:23:56.536Z,995.01
2018-03-08T07:24:56.551Z,995.00
2018-03-08T07:25:56.571Z,995.03
2018-03-08T07:26:56.576Z,995.03
2018-03-08T07:27:56.593Z,995.04
2018-03-08T07:28:56.610Z,995.09
2018-03-08T07:29:56.614Z,995.05
2018-03-08T07:30:56.623Z,995.08
2018-03-08T07:31:56.645Z,995.09
2018-03-08T07:32:56.657Z,995.12
2018-03-08T07:33:56.665Z,995.10
2018-03-08T07:34:56.685Z,995.14
2018-03-08T07:35:56.697Z,995.19
2018-03-08T07:36:56.702Z,995.18
2018-03-08T07:37:56.727Z,995.16
2018-03-08T07:38:56.732Z,995.18
2018-03-08T07:39:56.745Z,995.17
2018-03-08T07:40:56.766Z,995.24
2018-03-08T07:41:56.772Z,995.24
2018-03-08T07:42:56.781Z,995.26
2018-03-08T07:43:56.806Z,995.27
2018-03-08T07:44:56.824Z,995.27
2018-03-08T07:45:56.824Z,995.31
2018-03-08T07:46:56.840Z,995.28
2018-03-08T07:47:56.850Z,995.30
2018-03-08T07:48:56.867Z,995.27
2018-03-08T07:49:56.883Z,995.29
2018-03-08T07:50:56.889Z,995.27
2018-03-08T07:51:56.898Z,995.31
2018-03-08T07:52:56.923Z,995.30
2018-03-08T07:53:56.928Z,995.32
2018-03-08T07:54:56.941Z,995.34
2018-03-08T07:55:56.959Z,995.30
2018-03-08T07:56:56.970Z,995.32
2018-03-08T07:57:56.978Z,995.38
2018-03-08T07:58:57.001Z,995.35
2018-03-08T07:59:57.007Z,995.36
2018-03-08T08:00:57.017Z,995.38
2018-03-08T08:01:57.037Z,995.41
2018-03-08T08:02:57.047Z,995.40
2018-03-08T08:03:57.054Z,995.42
2018-03-08T08:04:57.076Z,995.43
2018-03-08T08:05:57.086Z,995.44
2018-03-08T08:06:57.094Z,995.46
2018-03-08T08:07:57.115Z,995.48
2018-03-08T08:08:57.124Z,995.46
2018-03-08T08:09:57.137Z,995.52
2018-03-08T08:10:57.165Z,995.53
2018-03-08T08:11:57.165Z,995.49
2018-03-08T08:12:57.174Z,995.52
2018-03-08T08:13:57.198Z,995.56
2018-03-08T08:14:57.206Z,995.54
2018-03-08T08:15:57.223Z,995.55
2018-03-08T08:16:57.234Z,995.57
2018-03-08T08:17:57.245Z,995.59
2018-03-08T08:18:57.262Z,995.56
2018-03-08T08:19:57.294Z,995.62
2018-03-08T08:20:57.298Z,995.58
2018-03-08T08:21:57.306Z,995.58
2018-03-08T08:22:57.311Z,995.67
2018-03-08T08:23:57.323Z,995.62
2018-03-08T08:24:57.341Z,995.66
2018-03-08T08:25:57.352Z,995.65
2018-03-08T08:26:57.366Z,995.64
2018-03-08T08:27:57.385Z,995.65
2018-03-08T08:28:57.392Z,995.66
2018-03-08T08:29:57.398Z,995.71
2018-03-08T08:30:57.421Z,995.70
2018-03-08T08:31:57.432Z,995.74
2018-03-08T08:32:57.443Z,995.73
2018-03-08T08:33:57.459Z,995.73
2018-03-08T08:34:57.468Z,995.74
2018-03-08T08:35:57.493Z,995.75
2018-03-08T08:36:57.498Z,995.76
2018-03-08T08:37:57.510Z,995.77
2018-03-08T08:38:57.529Z,995.76
2018-03-08T08:39:57.550Z,995.79
2018-03-08T08:40:57.545Z,995.86
2018-03-08T08:41:57.572Z,995.89
2018-03-08T08:42:57.577Z,995.85
2018-03-08T08:43:57.587Z,995.88
2018-03-08T08:44:57.608Z,995.91
2018-03-08T08:45:57.616Z,995.95
2018-03-08T08:46:57.625Z,995.95
2018-03-08T08:47:57.647Z,995.96
2018-03-08T08:48:57.655Z,995.95
2018-03-08T08:49:57.670Z,995.99
2018-03-08T08:50:57.686Z,995.96
2018-03-08T08:51:57.694Z,996.03
2018-03-08T08:52:57.718Z,996.05
2018-03-08T08:53:57.726Z,996.06
2018-03-08T08:54:57.733Z,996.04
2018-03-08T08:55:57.755Z,996.07
2018-03-08T08:56:57.772Z,996.13
2018-03-08T08:57:57.772Z,996.14
2018-03-08T08:58:57.794Z,996.13
2018-03-08T08:59:57.804Z,996.14
2018-03-08T09:00:57.811Z,996.16
2018-03-08T09:01:57.836Z,996.22
2018-03-08T09:02:57.842Z,996.15
2018-03-08T09:03:57.854Z,996.18
2018-03-08T09:04:57.872Z,996.18
2018-03-08T09:05:57.883Z,996.22
2018-03-08T09:06:57.890Z,996.21
2018-03-08T09:07:57.912Z,996.25
2018-03-08T09:08:57.924Z,996.23
2018-03-08T09:09:57.929Z,996.24
2018-03-08T09:10:57.962Z,996.25
2018-03-08T09:11:57.960Z,996.25
2018-03-08T09:12:57.980Z,996.32
2018-03-08T09:13:57.990Z,996.32
2018-03-08T09:14:57.998Z,996.34
2018-03-08T09:15:58.020Z,996.39
2018-03-08T09:16:58.029Z,996.36
2018-03-08T09:17:58.042Z,996.40
2018-03-08T09:18:58.064Z,996.41
2018-03-08T09:19:58.068Z,996.44
2018-03-08T09:20:58.078Z,996.41
2018-03-08T09:21:58.103Z,996.47
2018-03-08T09:22:58.107Z,996.43
2018-03-08T09:23:58.120Z,996.46
2018-03-08T09:24:58.146Z,996.44
2018-03-08T09:25:58.147Z,996.47
2018-03-08T09:26:58.155Z,996.45
2018-03-08T09:27:58.177Z,996.45
2018-03-08T09:28:58.185Z,996.43
2018-03-08T09:29:58.210Z,996.45
2018-03-08T09:30:58.218Z,996.52
2018-03-08T09:31:58.230Z,996.42
2018-03-08T09:32:58.252Z,996.51
2018-03-08T09:33:58.257Z,996.47
2018-03-08T09:34:58.269Z,996.53
2018-03-08T09:35:58.288Z,996.52
2018-03-08T09:36:58.299Z,996.53
2018-03-08T09:37:58.306Z,996.52
2018-03-08T09:38:58.327Z,996.57
2018-03-08T09:39:58.338Z,996.58
2018-03-08T09:40:58.343Z,996.56
2018-03-08T09:41:58.367Z,996.59
2018-03-08T09:42:58.373Z,996.57
2018-03-08T09:43:58.386Z,996.62
2018-03-08T09:44:58.403Z,996.61
2018-03-08T09:45:58.416Z,996.60
2018-03-08T09:46:58.433Z,996.62
2018-03-08T09:47:58.442Z,996.64
2018-03-08T09:48:58.452Z,996.66
2018-03-08T09:49:58.478Z,996.65
2018-03-08T09:50:58.482Z,996.66
2018-03-08T09:51:58.490Z,996.63
2018-03-08T09:52:58.512Z,996.71
2018-03-08T09:53:58.520Z,996.67
2018-03-08T09:54:58.529Z,996.67
2018-03-08T09:55:58.554Z,996.72
2018-03-08T09:56:58.559Z,996.68
2018-03-08T09:57:58.568Z,996.74
2018-03-08T09:58:58.607Z,996.82
2018-03-08T09:59:58.599Z,996.79
2018-03-08T10:00:58.633Z,996.75
2018-03-08T10:01:58.629Z,996.78
2018-03-08T10:02:58.637Z,996.76
2018-03-08T10:03:58.663Z,996.73
2018-03-08T10:04:58.675Z,996.78
2018-03-08T10:05:58.678Z,996.75
2018-03-08T10:06:58.698Z,996.76
2018-03-08T10:07:58.712Z,996.81
2018-03-08T10:08:58.716Z,996.84
2018-03-08T10:09:58.737Z,996.82
2018-03-08T10:10:58.746Z,996.84
2018-03-08T10:11:58.755Z,996.85
2018-03-08T10:12:58.776Z,996.85
2018-03-08T10:13:58.790Z,996.87
2018-03-08T10:14:58.806Z,996.91
2018-03-08T10:15:58.816Z,996.91
2018-03-08T10:16:58.828Z,996.87
2018-03-08T10:17:58.840Z,996.86
2018-03-08T10:18:58.871Z,996.94
2018-03-08T10:19:58.865Z,996.88
2018-03-08T10:20:58.886Z,996.87
2018-03-08T10:21:58.899Z,996.89
2018-03-08T10:22:58.904Z,996.96
2018-03-08T10:23:58.929Z,996.94
2018-03-08T10:24:58.934Z,996.97
2018-03-08T10:25:58.943Z,996.94
2018-03-08T10:26:58.967Z,996.96
2018-03-08T10:27:58.973Z,996.95
2018-03-08T10:28:59.059Z,996.93
2018-03-08T10:29:59.004Z,996.97
2018-03-08T10:30:59.011Z,996.97
2018-03-08T10:31:59.033Z,997.00
2018-03-08T10:32:59.048Z,996.98
2018-03-08T10:33:59.051Z,997.04
2018-03-08T10:34:59.076Z,997.01
2018-03-08T10:35:59.085Z,997.03
2018-03-08T10:36:59.106Z,997.04
2018-03-08T10:37:59.115Z,997.00
2018-03-08T10:38:59.124Z,997.04
2018-03-08T10:39:59.145Z,997.06
2018-03-08T10:40:59.216Z,996.99
2018-03-08T10:41:59.164Z,997.05
2018-03-08T10:42:59.184Z,997.01
2018-03-08T10:43:59.190Z,997.06
2018-03-08T10:44:59.211Z,997.08
2018-03-08T10:45:59.224Z,997.04
2018-03-08T10:46:59.228Z,997.11
2018-03-08T10:47:59.253Z,997.15
2018-03-08T10:49:59.280Z,997.16
2018-03-08T10:50:59.293Z,997.15
2018-03-08T10:51:59.298Z,997.16
2018-03-08T10:52:59.320Z,997.23
2018-03-08T10:53:59.334Z,997.26
2018-03-08T10:54:59.342Z,997.29
2018-03-08T10:55:59.360Z,997.27
2018-03-08T10:56:59.370Z,997.28
2018-03-08T10:57:59.395Z,997.26
2018-03-08T10:58:59.400Z,997.28
2018-03-08T10:59:59.407Z,997.31
2018-03-08T11:00:59.432Z,997.33
2018-03-08T11:01:59.437Z,997.35
2018-03-08T11:02:59.460Z,997.33
2018-03-08T11:03:59.471Z,997.44
2018-03-08T11:04:59.479Z,997.43
2018-03-08T11:05:59.501Z,997.49
2018-03-08T11:06:59.506Z,997.46
2018-03-08T11:07:59.531Z,997.46
2018-03-08T11:08:59.539Z,997.46
2018-03-08T11:09:59.547Z,997.51
2018-03-08T11:10:59.566Z,997.50
2018-03-08T11:11:59.576Z,997.47
2018-03-08T11:12:59.598Z,997.39
2018-03-08T11:13:59.610Z,997.42
2018-03-08T11:14:59.628Z,997.37
2018-03-08T11:15:59.641Z,997.45
2018-03-08T11:16:59.659Z,997.38
2018-03-08T11:17:59.671Z,997.36
2018-03-08T11:18:59.723Z,997.36
2018-03-08T11:19:59.699Z,997.39
2018-03-08T11:20:59.722Z,997.35
2018-03-08T11:21:59.733Z,997.36
2018-03-08T11:22:59.749Z,997.37
2018-03-08T11:23:59.758Z,997.35
2018-03-08T11:24:59.780Z,997.43
2018-03-08T11:25:59.791Z,997.47
2018-03-08T11:26:59.809Z,997.49
2018-03-08T11:27:59.819Z,997.46
2018-03-08T11:28:59.840Z,997.46
2018-03-08T11:29:59.924Z,997.51
2018-03-08T11:30:59.870Z,997.53
2018-03-08T11:31:59.881Z,997.48
2018-03-08T11:32:59.901Z,997.54
2018-03-08T11:33:59.925Z,997.46
2018-03-08T11:34:59.932Z,997.45
2018-03-08T11:35:59.951Z,997.49
2018-03-08T11:36:59.962Z,997.45
2018-03-08T11:37:59.984Z,997.48
2018-03-08T11:38:59.996Z,997.44
2018-03-08T11:40:00.013Z,997.39
2018-03-08T11:41:01.746Z,997.50
2018-03-08T11:42:00.044Z,997.45
2018-03-08T11:43:00.064Z,997.41
2018-03-08T11:44:00.086Z,997.44
2018-03-08T11:45:00.098Z,997.47
2018-03-08T11:46:00.115Z,997.39
2018-03-08T11:47:00.126Z,997.35
2018-03-08T11:48:00.150Z,997.33
2018-03-08T11:49:00.412Z,997.37
2018-03-08T11:50:00.176Z,997.35
2018-03-08T11:51:00.201Z,997.35
2018-03-08T11:52:00.222Z,997.37
2018-03-08T11:53:00.232Z,997.36
2018-03-08T11:54:00.254Z,997.32
2018-03-08T11:55:00.275Z,997.36
2018-03-08T11:56:00.279Z,997.36
2018-03-08T11:57:00.301Z,997.38
2018-03-08T11:58:00.326Z,997.37
2018-03-08T11:59:00.332Z,997.40
2018-03-08T12:00:00.353Z,997.42
2018-03-08T12:01:00.374Z,997.47
2018-03-08T12:02:00.382Z,997.48
2018-03-08T12:03:00.417Z,997.52
2018-03-08T12:04:00.426Z,997.52
2018-03-08T12:05:00.439Z,997.42
2018-03-08T12:06:00.456Z,997.33
2018-03-08T12:07:00.479Z,997.36
2018-03-08T12:08:00.490Z,997.25
2018-03-08T12:09:00.512Z,997.22
2018-03-08T12:10:00.529Z,997.26
2018-03-08T12:11:00.559Z,997.27
2018-03-08T12:12:00.621Z,997.24
2018-03-08T12:13:00.585Z,997.21
2018-03-08T12:14:00.592Z,997.25
2018-03-08T12:15:00.615Z,997.21
2018-03-08T12:16:00.636Z,997.25
2018-03-08T12:17:00.709Z,997.22
2018-03-08T12:18:00.710Z,997.26
2018-03-08T12:19:00.684Z,997.25
2018-03-08T12:20:00.710Z,997.26
2018-03-08T12:21:00.715Z,997.21
2018-03-08T12:22:00.736Z,997.24
2018-03-08T12:23:00.761Z,997.26
2018-03-08T12:24:00.766Z,997.24
2018-03-08T12:25:00.794Z,997.24
2018-03-08T12:26:00.814Z,997.20
2018-03-08T12:27:00.830Z,997.22
2018-03-08T12:28:00.842Z,997.21
2018-03-08T12:29:00.864Z,997.21
2018-03-08T12:30:00.895Z,997.20